createdAt,value
2018-11-26T00:01:51.512Z,42.10
2018-11-26T00:04:22.269Z,42.17
2018-11-26T00:06:52.841Z,41.33
2018-11-26T00:09:23.153Z,41.47
2018-11-26T00:11:53.845Z,41.50
2018-11-26T00:14:25.979Z,41.30
2018-11-26T00:16:56.512Z,42.30
2018-11-26T00:19:33.618Z,41.80
2018-11-26T00:22:03.825Z,42.57
2018-11-26T00:24:34.264Z,41.87
2018-11-26T00:27:05.581Z,41.70
2018-11-26T00:29:36.007Z,42.47
2018-11-26T00:32:06.506Z,41.30
2018-11-26T00:34:36.635Z,42.53
2018-11-26T00:37:07.829Z,42.37
2018-11-26T00:39:38.453Z,42.93
2018-11-26T00:42:08.873Z,42.90
2018-11-26T00:44:39.671Z,42.97
2018-11-26T00:47:09.761Z,42.57
2018-11-26T00:49:39.896Z,42.60
2018-11-26T00:52:10.288Z,43.20
2018-11-26T00:54:40.416Z,44.50
2018-11-26T00:57:10.748Z,44.77
2018-11-26T00:59:40.689Z,43.03
2018-11-26T01:02:11.910Z,43.43
2018-11-26T01:04:42.564Z,43.73
2018-11-26T01:07:13.275Z,43.47
2018-11-26T01:09:43.635Z,43.97
2018-11-26T01:12:14.431Z,43.90
2018-11-26T01:14:45.337Z,43.60
2018-11-26T01:17:15.695Z,44.10
2018-11-26T01:19:46.016Z,42.67
2018-11-26T01:22:16.594Z,44.50
2018-11-26T01:24:47.083Z,43.13
2018-11-26T01:27:17.911Z,43.50
2018-11-26T01:29:48.097Z,42.83
2018-11-26T01:32:18.342Z,43.13
2018-11-26T01:34:48.387Z,43.40
2018-11-26T01:37:18.625Z,44.63
2018-11-26T01:39:48.674Z,44.27
2018-11-26T01:42:18.850Z,45.40
2018-11-26T01:44:49.472Z,45.70
2018-11-26T01:47:19.827Z,45.23
2018-11-26T01:49:50.871Z,44.73
2018-11-26T01:52:21.079Z,44.37
2018-11-26T01:54:52.078Z,43.20
2018-11-26T01:57:22.402Z,42.83
2018-11-26T01:59:52.500Z,42.20
2018-11-26T02:02:23.423Z,42.00
2018-11-26T02:04:54.606Z,43.37
2018-11-26T02:07:24.960Z,43.70
2018-11-26T02:09:55.051Z,43.73
2018-11-26T02:12:25.471Z,43.47
2018-11-26T02:14:55.754Z,44.43
2018-11-26T02:17:26.247Z,44.93
2018-11-26T02:19:56.505Z,45.77
2018-11-26T02:22:26.811Z,44.57
2018-11-26T02:24:58.600Z,44.80
2018-11-26T02:27:28.774Z,45.17
2018-11-26T02:29:59.313Z,45.00
2018-11-26T02:32:30.423Z,45.90
2018-11-26T02:35:00.632Z,43.93
2018-11-26T02:37:31.375Z,42.70
2018-11-26T02:40:01.260Z,42.80
2018-11-26T02:42:31.327Z,43.17
2018-11-26T02:45:02.175Z,42.53
2018-11-26T02:47:32.234Z,42.40
2018-11-26T02:50:02.131Z,42.20
2018-11-26T02:52:39.563Z,42.97
2018-11-26T02:55:10.277Z,42.10
2018-11-26T02:57:40.326Z,42.53
2018-11-26T03:00:12.273Z,43.90
2018-11-26T03:02:42.269Z,43.73
2018-11-26T03:05:18.788Z,42.53
2018-11-26T03:07:49.528Z,42.60
2018-11-26T03:10:19.926Z,42.90
2018-11-26T03:12:50.579Z,43.63
2018-11-26T03:15:20.851Z,42.60
2018-11-26T03:17:51.284Z,42.43
2018-11-26T03:20:21.689Z,42.70
2018-11-26T03:22:51.937Z,42.93
2018-11-26T03:25:22.001Z,43.23
2018-11-26T03:27:52.171Z,43.43
2018-11-26T03:30:24.088Z,43.47
2018-11-26T03:32:54.136Z,43.17
2018-11-26T03:35:24.553Z,43.53
2018-11-26T03:37:54.618Z,43.77
2018-11-26T03:40:24.720Z,43.97
2018-11-26T03:42:54.768Z,43.80
2018-11-26T03:45:24.710Z,44.03
2018-11-26T03:47:54.867Z,44.17
2018-11-26T03:50:25.004Z,44.27
2018-11-26T03:52:55.453Z,43.70
2018-11-26T03:55:25.559Z,44.43
2018-11-26T03:57:55.655Z,45.00
2018-11-26T04:00:25.585Z,45.00
2018-11-26T04:02:55.569Z,44.83
2018-11-26T04:05:25.737Z,45.43
2018-11-26T04:07:57.029Z,46.20
2018-11-26T04:10:27.104Z,44.90
2018-11-26T04:12:57.118Z,44.03
2018-11-26T04:15:27.260Z,45.07
2018-11-26T04:17:57.225Z,45.03
2018-11-26T04:20:27.494Z,43.00
2018-11-26T04:22:57.681Z,43.77
2018-11-26T04:25:29.954Z,44.10
2018-11-26T04:27:59.963Z,44.80
2018-11-26T04:30:30.449Z,44.70
2018-11-26T04:33:00.608Z,43.47
2018-11-26T04:35:31.097Z,43.87
2018-11-26T04:38:01.592Z,43.93
2018-11-26T04:40:32.595Z,44.07
2018-11-26T04:43:03.680Z,43.80
2018-11-26T04:45:34.704Z,43.80
2018-11-26T04:48:04.868Z,43.87
2018-11-26T04:50:36.423Z,46.43
2018-11-26T04:53:07.540Z,46.43
2018-11-26T04:55:39.012Z,45.63
2018-11-26T04:58:10.164Z,43.70
2018-11-26T05:00:40.637Z,45.00
2018-11-26T05:03:10.661Z,45.13
2018-11-26T05:05:40.573Z,45.10
2018-11-26T05:08:10.683Z,44.03
2018-11-26T05:10:41.250Z,45.03
2018-11-26T05:13:11.676Z,44.77
2018-11-26T05:15:41.742Z,45.17
2018-11-26T05:18:11.708Z,44.50
2018-11-26T05:20:41.757Z,44.30
2018-11-26T05:23:11.896Z,43.27
2018-11-26T05:25:42.214Z,43.60
2018-11-26T05:28:12.312Z,43.97
2018-11-26T05:30:42.193Z,44.07
2018-11-26T05:33:12.089Z,43.93
2018-11-26T05:35:42.058Z,43.70
2018-11-26T05:38:12.083Z,44.63
2018-11-26T05:40:42.966Z,44.83
2018-11-26T05:43:13.133Z,44.90
2018-11-26T05:45:44.092Z,43.53
2018-11-26T05:48:14.021Z,45.27
2018-11-26T05:50:44.122Z,46.00
2018-11-26T05:53:14.185Z,44.40
2018-11-26T05:55:44.366Z,45.47
2018-11-26T05:58:14.636Z,45.00
2018-11-26T06:00:44.748Z,45.03
2018-11-26T06:03:15.215Z,44.50
2018-11-26T06:05:45.783Z,45.33
2018-11-26T06:08:15.804Z,45.53
2018-11-26T06:10:45.863Z,45.83
2018-11-26T06:13:16.052Z,45.20
2018-11-26T06:15:46.668Z,45.43
2018-11-26T06:18:17.022Z,45.60
2018-11-26T06:20:46.988Z,45.20
2018-11-26T06:23:17.182Z,45.03
2018-11-26T06:25:47.710Z,45.37
2018-11-26T06:28:19.515Z,45.93
2018-11-26T06:30:49.990Z,45.60
2018-11-26T06:33:19.963Z,45.93
2018-11-26T06:35:50.160Z,45.77
2018-11-26T06:38:20.149Z,45.63
2018-11-26T06:40:50.709Z,46.07
2018-11-26T06:43:21.857Z,46.30
2018-11-26T06:45:52.229Z,46.80
2018-11-26T06:48:22.239Z,46.27
2018-11-26T06:50:52.481Z,45.73
2018-11-26T06:53:23.500Z,45.63
2018-11-26T06:55:53.557Z,47.00
2018-11-26T06:58:23.793Z,46.00
2018-11-26T07:00:54.176Z,46.50
2018-11-26T07:03:24.380Z,47.10
2018-11-26T07:05:54.334Z,46.33
2018-11-26T07:08:24.367Z,47.37
2018-11-26T07:10:54.571Z,46.53
2018-11-26T07:13:24.725Z,47.30
2018-11-26T07:15:55.061Z,47.37
2018-11-26T07:18:25.257Z,46.07
2018-11-26T07:20:55.352Z,45.83
2018-11-26T07:23:25.563Z,47.63
2018-11-26T07:25:56.099Z,46.30
2018-11-26T07:28:26.262Z,46.63
2018-11-26T07:30:56.377Z,46.83
2018-11-26T07:33:27.424Z,46.50
2018-11-26T07:35:57.485Z,47.03
2018-11-26T07:38:27.501Z,47.43
2018-11-26T07:40:57.670Z,46.93
2018-11-26T07:43:27.981Z,46.33
2018-11-26T07:46:01.132Z,45.80
2018-11-26T07:48:31.263Z,46.40
2018-11-26T07:51:01.238Z,46.10
2018-11-26T07:53:31.548Z,46.53
2018-11-26T07:56:01.641Z,47.13
2018-11-26T07:58:32.311Z,45.67
2018-11-26T08:01:02.395Z,45.77
2018-11-26T08:03:33.430Z,45.77
2018-11-26T08:06:08.781Z,45.33
2018-11-26T08:08:34.388Z,47.83
2018-11-26T08:11:04.403Z,44.93
2018-11-26T08:13:35.029Z,45.37
2018-11-26T08:16:06.621Z,45.63
2018-11-26T08:18:37.826Z,45.27
2018-11-26T08:21:08.422Z,45.70
2018-11-26T08:23:39.346Z,45.27
2018-11-26T08:26:09.589Z,44.87
2018-11-26T08:28:40.839Z,43.87
2018-11-26T08:31:11.587Z,44.70
2018-11-26T08:33:42.026Z,44.20
2018-11-26T08:36:14.286Z,43.73
2018-11-26T08:38:46.212Z,42.67
2018-11-26T08:41:18.990Z,42.83
2018-11-26T08:43:57.097Z,42.87
2018-11-26T08:46:32.294Z,43.10
2018-11-26T08:49:02.792Z,42.00
2018-11-26T08:51:33.276Z,43.40
2018-11-26T08:54:03.864Z,41.90
2018-11-26T08:56:33.920Z,43.17
2018-11-26T08:59:03.818Z,42.90
2018-11-26T09:01:34.570Z,42.33
2018-11-26T09:04:04.993Z,42.17
2018-11-26T09:06:35.088Z,42.73
2018-11-26T09:09:07.634Z,41.53
2018-11-26T09:11:37.856Z,42.37
2018-11-26T09:14:08.553Z,42.40
2018-11-26T09:16:39.496Z,41.47
2018-11-26T09:19:09.739Z,41.93
2018-11-26T09:21:41.173Z,42.67
2018-11-26T09:24:12.307Z,42.23
2018-11-26T09:26:43.679Z,42.20
2018-11-26T09:29:13.987Z,41.93
2018-11-26T09:31:44.402Z,41.77
2018-11-26T09:34:14.521Z,40.93
2018-11-26T09:36:44.697Z,41.63
2018-11-26T09:39:15.176Z,41.60
2018-11-26T09:41:46.200Z,41.67
2018-11-26T09:44:16.871Z,41.17
2018-11-26T09:46:47.099Z,40.60
2018-11-26T09:49:17.280Z,40.57
2018-11-26T09:51:48.949Z,41.13
2018-11-26T09:54:25.778Z,41.90
2018-11-26T09:56:49.413Z,41.87
2018-11-26T09:59:19.412Z,40.80
2018-11-26T10:01:50.535Z,41.27
2018-11-26T10:04:20.762Z,41.67
2018-11-26T10:06:51.349Z,41.73
2018-11-26T10:09:22.148Z,40.83
2018-11-26T10:11:52.893Z,40.70
2018-11-26T10:14:23.784Z,40.43
2018-11-26T10:16:54.665Z,41.30
2018-11-26T10:19:24.841Z,41.67
2018-11-26T10:21:55.638Z,42.93
2018-11-26T10:24:25.755Z,43.50
2018-11-26T10:26:55.857Z,44.23
2018-11-26T10:29:26.079Z,45.37
2018-11-26T10:31:56.652Z,44.40
2018-11-26T10:34:28.246Z,44.00
2018-11-26T10:36:58.627Z,43.40
2018-11-26T10:39:29.795Z,42.53
2018-11-26T10:42:01.112Z,42.70
2018-11-26T10:44:30.861Z,41.90
2018-11-26T10:47:01.056Z,42.33
2018-11-26T10:49:31.486Z,41.90
2018-11-26T10:52:01.985Z,42.30
2018-11-26T10:54:32.929Z,41.83
2018-11-26T10:57:03.383Z,41.80
2018-11-26T10:59:33.969Z,41.40
2018-11-26T11:03:09.797Z,41.77
2018-11-26T11:05:40.073Z,42.20
2018-11-26T11:08:11.220Z,40.73
2018-11-26T11:10:41.650Z,41.30
2018-11-26T11:13:12.003Z,41.17
2018-11-26T11:15:42.913Z,41.83
2018-11-26T11:18:13.284Z,41.77
2018-11-26T11:20:43.600Z,40.77
2018-11-26T11:23:14.197Z,40.60
2018-11-26T11:25:44.969Z,40.37
2018-11-26T11:28:15.138Z,40.20
2018-11-26T11:30:45.526Z,40.37
2018-11-26T11:35:45.452Z,40.83
2018-11-26T11:38:16.729Z,40.03
2018-11-26T11:40:46.982Z,40.93
2018-11-26T11:43:17.557Z,40.17
2018-11-26T11:45:48.552Z,40.53
2018-11-26T11:48:19.433Z,40.90
2018-11-26T11:50:50.177Z,40.43
2018-11-26T11:53:20.169Z,39.93
2018-11-26T11:55:50.434Z,39.97
2018-11-26T11:58:20.729Z,40.10
2018-11-26T12:00:50.961Z,39.90
2018-11-26T12:03:21.979Z,40.40
2018-11-26T12:05:52.253Z,39.67
2018-11-26T12:08:22.874Z,39.63
2018-11-26T12:10:52.878Z,40.03
2018-11-26T12:13:22.970Z,40.27
2018-11-26T12:15:54.712Z,39.97
2018-11-26T12:18:24.792Z,40.20
2018-11-26T12:20:55.144Z,40.47
2018-11-26T12:23:25.383Z,40.40
2018-11-26T12:25:57.221Z,40.53
2018-11-26T12:28:27.335Z,40.17
2018-11-26T12:30:58.428Z,39.73
2018-11-26T12:33:28.994Z,40.33
2018-11-26T12:35:59.728Z,40.80
2018-11-26T12:38:29.749Z,40.90
2018-11-26T12:40:59.864Z,42.10
2018-11-26T12:43:31.030Z,40.77
2018-11-26T12:46:01.341Z,40.37
2018-11-26T12:48:32.510Z,41.50
2018-11-26T12:51:03.042Z,41.27
2018-11-26T12:53:34.123Z,40.50
2018-11-26T12:56:04.809Z,41.67
2018-11-26T12:58:34.978Z,41.33
2018-11-26T13:01:05.335Z,41.00
2018-11-26T13:03:35.594Z,40.90
2018-11-26T13:06:06.618Z,41.23
2018-11-26T13:08:36.987Z,40.87
2018-11-26T13:11:07.995Z,40.90
2018-11-26T13:13:38.071Z,40.40
2018-11-26T13:16:08.317Z,40.03
2018-11-26T13:18:38.709Z,41.23
2018-11-26T13:21:09.370Z,41.10
2018-11-26T13:23:40.337Z,40.93
2018-11-26T13:26:12.121Z,40.97
2018-11-26T13:28:42.077Z,41.47
2018-11-26T13:31:11.993Z,41.23
2018-11-26T13:33:41.915Z,41.50
2018-11-26T13:36:12.125Z,40.87
2018-11-26T13:38:42.345Z,40.53
2018-11-26T13:41:12.430Z,41.13
2018-11-26T13:43:42.557Z,41.10
2018-11-26T13:46:13.559Z,40.00
2018-11-26T13:48:43.635Z,41.03
2018-11-26T13:51:13.873Z,41.10
2018-11-26T13:53:44.126Z,40.60
2018-11-26T13:56:15.455Z,39.97
2018-11-26T13:58:45.499Z,41.27
2018-11-26T14:01:15.687Z,40.33
2018-11-26T14:03:45.933Z,40.27
2018-11-26T14:06:16.037Z,40.83
2018-11-26T14:08:49.831Z,40.00
2018-11-26T14:11:20.660Z,40.17
2018-11-26T14:13:50.711Z,39.90
2018-11-26T14:16:22.520Z,40.13
2018-11-26T14:18:54.003Z,40.23
2018-11-26T14:21:24.592Z,40.37
2018-11-26T14:23:54.822Z,40.20
2018-11-26T14:26:24.978Z,40.13
2018-11-26T14:28:55.194Z,39.50
2018-11-26T14:31:25.646Z,40.33
2018-11-26T14:33:57.598Z,40.47
2018-11-26T14:36:27.729Z,40.53
2018-11-26T14:38:57.824Z,40.33
2018-11-26T14:41:28.812Z,40.00
2018-11-26T14:43:59.033Z,40.90
2018-11-26T14:46:30.080Z,40.87
2018-11-26T14:49:00.402Z,40.53
2018-11-26T14:51:30.498Z,40.90
2018-11-26T14:54:00.564Z,40.17
2018-11-26T14:56:32.816Z,40.30
2018-11-26T14:59:05.051Z,39.23
2018-11-26T15:01:36.487Z,40.30
2018-11-26T15:04:08.292Z,40.10
2018-11-26T15:06:38.284Z,40.30
2018-11-26T15:09:10.806Z,39.17
2018-11-26T15:11:41.403Z,39.07
2018-11-26T15:14:12.128Z,39.63
2018-11-26T15:16:42.893Z,39.17
2018-11-26T15:19:13.288Z,39.13
2018-11-26T15:21:44.034Z,38.70
2018-11-26T15:24:14.830Z,38.67
2018-11-26T15:26:45.281Z,41.80
2018-11-26T15:29:15.417Z,40.23
2018-11-26T15:31:50.148Z,40.53
2018-11-26T15:34:15.643Z,39.87
2018-11-26T15:36:45.698Z,39.70
2018-11-26T15:39:16.198Z,39.33
2018-11-26T15:41:46.386Z,41.30
2018-11-26T15:44:16.940Z,40.03
2018-11-26T15:46:47.033Z,40.10
2018-11-26T15:49:17.096Z,40.00
2018-11-26T15:51:47.486Z,39.77
2018-11-26T15:54:17.876Z,39.47
2018-11-26T15:56:48.023Z,39.43
2018-11-26T15:59:18.311Z,39.67
2018-11-26T16:01:48.930Z,39.50
2018-11-26T16:04:18.912Z,39.93
2018-11-26T16:06:49.778Z,40.83
2018-11-26T16:09:19.993Z,39.90
2018-11-26T16:11:51.139Z,39.90
2018-11-26T16:14:21.372Z,40.23
2018-11-26T16:16:51.550Z,41.33
2018-11-26T16:19:21.493Z,40.33
2018-11-26T16:21:52.424Z,40.70
2018-11-26T16:24:22.550Z,41.47
2018-11-26T16:26:53.432Z,39.70
2018-11-26T16:29:23.745Z,41.03
2018-11-26T16:31:53.877Z,39.90
2018-11-26T16:34:24.311Z,40.97
2018-11-26T16:36:54.533Z,41.50
2018-11-26T16:39:24.634Z,41.70
2018-11-26T16:41:55.105Z,41.17
2018-11-26T16:44:26.545Z,42.10
2018-11-26T16:46:57.013Z,41.13
2018-11-26T16:49:27.031Z,42.07
2018-11-26T16:51:57.087Z,41.83
2018-11-26T16:54:27.341Z,41.47
2018-11-26T16:56:57.404Z,41.57
2018-11-26T16:59:28.382Z,41.23
2018-11-26T17:01:58.908Z,40.53
2018-11-26T17:04:29.000Z,41.43
2018-11-26T17:06:59.560Z,41.20
2018-11-26T17:09:30.354Z,41.10
2018-11-26T17:12:01.113Z,40.33
2018-11-26T17:14:32.151Z,40.13
2018-11-26T17:17:05.144Z,41.03
2018-11-26T17:19:35.884Z,40.63
2018-11-26T17:22:06.312Z,40.77
2018-11-26T17:24:36.540Z,40.90
2018-11-26T17:27:07.019Z,41.03
2018-11-26T17:29:36.902Z,41.87
2018-11-26T17:32:07.127Z,42.27
2018-11-26T17:34:37.211Z,42.53
2018-11-26T17:37:07.504Z,42.73
2018-11-26T17:39:37.979Z,42.30
2018-11-26T17:42:08.146Z,42.63
2018-11-26T17:44:38.971Z,42.37
2018-11-26T17:47:09.206Z,42.60
2018-11-26T17:49:39.334Z,42.03
2018-11-26T17:52:10.158Z,42.93
2018-11-26T17:54:40.172Z,41.30
2018-11-26T17:57:10.678Z,42.40
2018-11-26T17:59:40.905Z,43.00
2018-11-26T18:02:11.225Z,42.30
2018-11-26T18:04:41.710Z,42.17
2018-11-26T18:07:11.877Z,41.77
2018-11-26T18:09:42.019Z,42.50
2018-11-26T18:12:12.230Z,41.10
2018-11-26T18:14:42.263Z,41.80
2018-11-26T18:17:12.770Z,41.67
2018-11-26T18:19:43.013Z,41.97
2018-11-26T18:22:13.107Z,42.43
2018-11-26T18:24:43.378Z,41.83
2018-11-26T18:27:14.301Z,42.07
2018-11-26T18:29:46.050Z,41.70
2018-11-26T18:32:16.386Z,42.17
2018-11-26T18:34:49.707Z,41.87
2018-11-26T18:37:20.046Z,42.20
2018-11-26T18:39:51.423Z,43.23
2018-11-26T18:42:21.574Z,43.57
2018-11-26T18:44:53.531Z,42.70
2018-11-26T18:47:24.365Z,42.93
2018-11-26T18:49:54.616Z,41.00
2018-11-26T18:52:24.845Z,42.27
2018-11-26T18:54:55.676Z,42.27
2018-11-26T18:57:25.866Z,42.93
2018-11-26T18:59:56.008Z,42.20
2018-11-26T19:02:27.854Z,41.40
2018-11-26T19:04:58.078Z,41.07
2018-11-26T19:07:28.343Z,41.50
2018-11-26T19:09:58.723Z,40.60
2018-11-26T19:12:28.724Z,40.87
2018-11-26T19:14:58.715Z,41.03
2018-11-26T19:17:29.103Z,41.37
2018-11-26T19:20:02.071Z,42.47
2018-11-26T19:22:33.060Z,42.87
2018-11-26T19:25:07.783Z,42.70
2018-11-26T19:27:41.726Z,43.43
2018-11-26T19:30:15.362Z,43.63
2018-11-26T19:32:47.228Z,44.97
2018-11-26T19:35:19.472Z,46.03
2018-11-26T19:37:50.965Z,47.30
2018-11-26T19:40:21.769Z,49.03
2018-11-26T19:42:55.933Z,48.03
2018-11-26T19:45:26.850Z,47.53
2018-11-26T19:47:57.036Z,46.57
2018-11-26T19:50:27.278Z,46.03
2018-11-26T19:52:57.471Z,45.80
2018-11-26T19:55:28.385Z,43.57
2018-11-26T19:57:59.970Z,43.27
2018-11-26T20:00:31.822Z,42.90
2018-11-26T20:03:41.275Z,43.53
2018-11-26T20:06:17.812Z,42.57
2018-11-26T20:08:55.156Z,42.23
2018-11-26T20:11:25.292Z,43.10
2018-11-26T20:13:55.464Z,42.90
2018-11-26T20:16:29.841Z,43.33
2018-11-26T20:19:00.110Z,44.20
2018-11-26T20:21:30.117Z,42.87
2018-11-26T20:24:00.397Z,43.00
2018-11-26T20:26:30.740Z,43.20
2018-11-26T20:29:00.735Z,43.40
2018-11-26T20:31:31.164Z,43.27
2018-11-26T20:34:01.319Z,43.43
2018-11-26T20:36:31.333Z,43.60
2018-11-26T20:39:01.941Z,43.60
2018-11-26T20:41:32.188Z,42.93
2018-11-26T20:44:02.332Z,44.03
2018-11-26T20:46:33.314Z,44.10
2018-11-26T20:49:04.338Z,43.03
2018-11-26T20:51:35.293Z,43.67
2018-11-26T20:54:05.401Z,42.70
2018-11-26T20:56:36.144Z,42.90
2018-11-26T20:59:07.162Z,44.10
2018-11-26T21:01:37.289Z,43.97
2018-11-26T21:04:08.302Z,42.70
2018-11-26T21:06:38.651Z,43.27
2018-11-26T21:09:10.729Z,43.37
2018-11-26T21:11:40.836Z,42.83
2018-11-26T21:14:11.034Z,44.07
2018-11-26T21:16:41.488Z,44.80
2018-11-26T21:19:11.788Z,43.73
2018-11-26T21:21:41.882Z,44.73
2018-11-26T21:24:12.745Z,45.40
2018-11-26T21:26:43.309Z,44.13
2018-11-26T21:29:14.439Z,43.57
2018-11-26T21:31:45.226Z,44.47
2018-11-26T21:34:15.866Z,45.20
2018-11-26T21:36:46.210Z,44.73
2018-11-26T21:39:16.252Z,45.17
2018-11-26T21:41:46.626Z,44.57
2018-11-26T21:44:17.731Z,44.93
2018-11-26T21:46:54.922Z,43.53
2018-11-26T21:49:25.252Z,44.40
2018-11-26T21:51:56.360Z,44.53
2018-11-26T21:54:27.266Z,45.63
2018-11-26T21:56:57.625Z,44.70
2018-11-26T21:59:27.972Z,45.07
2018-11-26T22:01:58.080Z,45.37
2018-11-26T22:04:28.805Z,43.80
2018-11-26T22:07:00.283Z,44.20
2018-11-26T22:09:30.321Z,45.17
2018-11-26T22:12:00.859Z,44.90
2018-11-26T22:14:31.079Z,45.43
2018-11-26T22:17:01.135Z,45.47
2018-11-26T22:19:31.254Z,46.17
2018-11-26T22:22:02.377Z,47.97
2018-11-26T22:24:32.875Z,49.50
2018-11-26T22:27:03.119Z,49.83
2018-11-26T22:29:33.237Z,50.70
2018-11-26T22:32:03.909Z,50.47
2018-11-26T22:34:34.465Z,50.93
2018-11-26T22:37:04.638Z,52.17
2018-11-26T22:39:34.725Z,51.20
2018-11-26T22:42:05.042Z,52.53
2018-11-26T22:44:35.167Z,51.67
2018-11-26T22:47:05.627Z,52.03
2018-11-26T22:49:35.789Z,51.77
2018-11-26T22:52:05.849Z,52.73
2018-11-26T22:54:36.037Z,53.33
2018-11-26T22:57:06.857Z,52.77
2018-11-26T22:59:37.290Z,54.50
2018-11-26T23:02:07.843Z,51.60
2018-11-26T23:04:38.022Z,52.17
2018-11-26T23:07:08.062Z,51.60
2018-11-26T23:09:39.619Z,50.57
2018-11-26T23:12:11.476Z,49.47
2018-11-26T23:14:41.783Z,47.27
2018-11-26T23:17:11.876Z,47.70
2018-11-26T23:19:42.060Z,48.30
2018-11-26T23:22:13.163Z,48.70
2018-11-26T23:24:43.239Z,48.13
2018-11-26T23:27:13.368Z,48.70
2018-11-26T23:29:43.457Z,48.07
2018-11-26T23:32:13.644Z,48.60
2018-11-26T23:34:43.577Z,47.50
2018-11-26T23:37:13.945Z,48.10
2018-11-26T23:39:44.102Z,48.03
2018-11-26T23:42:14.356Z,48.87
2018-11-26T23:44:44.218Z,49.47
2018-11-26T23:47:16.068Z,49.43
2018-11-26T23:49:46.245Z,48.93
2018-11-26T23:52:16.465Z,48.63
2018-11-26T23:54:46.538Z,47.43
2018-11-26T23:57:16.827Z,49.33
2018-11-26T23:59:47.472Z,48.73
